createdAt,value
2017-05-15T00:00:28.035Z,10.30
2017-05-15T00:02:56.304Z,10.30
2017-05-15T00:05:24.589Z,10.40
2017-05-15T00:07:52.128Z,10.40
2017-05-15T00:10:21.275Z,10.50
2017-05-15T00:12:49.586Z,10.50
2017-05-15T00:15:18.631Z,10.50
2017-05-15T00:17:46.935Z,10.50
2017-05-15T00:20:15.222Z,10.50
2017-05-15T00:22:43.534Z,10.50
2017-05-15T00:25:11.122Z,10.50
2017-05-15T00:27:39.427Z,10.50
2017-05-15T00:30:06.988Z,10.50
2017-05-15T00:32:35.324Z,10.40
2017-05-15T00:35:03.094Z,10.40
2017-05-15T00:37:30.640Z,10.40
2017-05-15T00:39:58.211Z,10.50
2017-05-15T00:42:26.503Z,10.60
2017-05-15T00:44:54.075Z,10.50
2017-05-15T00:47:21.591Z,10.60
2017-05-15T00:49:50.189Z,10.70
2017-05-15T00:52:18.467Z,10.70
2017-05-15T00:54:45.963Z,10.70
2017-05-15T00:57:14.243Z,10.70
2017-05-15T00:59:42.511Z,10.70
2017-05-15T01:02:11.142Z,10.70
2017-05-15T01:04:38.700Z,10.70
2017-05-15T01:07:07.024Z,10.60
2017-05-15T01:09:35.297Z,10.60
2017-05-15T01:12:03.631Z,10.70
2017-05-15T01:14:31.202Z,10.70
2017-05-15T01:16:58.780Z,10.70
2017-05-15T01:19:28.150Z,10.80
2017-05-15T01:21:55.704Z,10.80
2017-05-15T01:24:24.023Z,10.80
2017-05-15T01:26:52.309Z,10.80
2017-05-15T01:29:20.624Z,10.90
2017-05-15T01:31:48.956Z,10.90
2017-05-15T01:34:17.215Z,11.00
2017-05-15T01:36:45.522Z,10.90
2017-05-15T01:39:13.797Z,11.00
2017-05-15T01:41:41.588Z,10.90
2017-05-15T01:44:09.929Z,10.90
2017-05-15T01:46:37.451Z,10.90
2017-05-15T01:49:05.046Z,11.00
2017-05-15T01:51:32.620Z,10.90
2017-05-15T01:54:00.880Z,10.90
2017-05-15T01:56:29.195Z,10.90
2017-05-15T01:58:57.667Z,10.90
2017-05-15T02:01:25.196Z,10.90
2017-05-15T02:03:53.481Z,10.90
2017-05-15T02:06:21.743Z,10.90
2017-05-15T02:08:50.035Z,10.90
2017-05-15T02:11:17.619Z,10.90
2017-05-15T02:13:45.527Z,10.90
2017-05-15T02:16:13.838Z,10.90
2017-05-15T02:18:41.358Z,10.90
2017-05-15T02:21:09.912Z,10.80
2017-05-15T02:23:37.424Z,10.80
2017-05-15T02:26:05.741Z,10.80
2017-05-15T02:28:33.257Z,10.80
2017-05-15T02:31:01.751Z,10.70
2017-05-15T02:33:29.259Z,10.70
2017-05-15T02:35:57.580Z,10.50
2017-05-15T02:38:26.271Z,10.50
2017-05-15T02:40:53.792Z,10.40
2017-05-15T02:43:21.311Z,10.40
2017-05-15T02:45:48.812Z,10.30
2017-05-15T02:48:16.383Z,10.30
2017-05-15T02:50:44.708Z,10.20
2017-05-15T02:53:13.807Z,10.20
2017-05-15T02:55:42.095Z,10.10
2017-05-15T02:58:10.467Z,9.90
2017-05-15T03:00:38.727Z,9.80
2017-05-15T03:03:06.292Z,9.80
2017-05-15T03:05:34.559Z,9.60
2017-05-15T03:08:02.881Z,9.50
2017-05-15T03:10:31.172Z,9.40
2017-05-15T03:12:58.735Z,9.40
2017-05-15T03:15:26.487Z,9.40
2017-05-15T03:17:54.771Z,9.30
2017-05-15T03:20:23.448Z,9.20
2017-05-15T03:22:51.711Z,9.10
2017-05-15T03:25:19.266Z,9.10
2017-05-15T03:27:46.808Z,9.10
2017-05-15T03:30:14.323Z,9.10
2017-05-15T03:32:42.076Z,9.10
2017-05-15T03:35:09.647Z,9.10
2017-05-15T03:37:37.193Z,9.10
2017-05-15T03:40:06.227Z,9.20
2017-05-15T03:42:34.485Z,9.10
2017-05-15T03:45:02.785Z,9.10
2017-05-15T03:47:30.339Z,9.10
2017-05-15T03:49:58.669Z,9.20
2017-05-15T03:52:26.512Z,9.20
2017-05-15T03:54:54.277Z,9.30
2017-05-15T03:57:22.035Z,9.40
2017-05-15T03:59:50.324Z,9.60
2017-05-15T04:02:17.852Z,9.50
2017-05-15T04:04:45.646Z,9.60
2017-05-15T04:07:14.710Z,9.80
2017-05-15T04:09:42.228Z,9.80
2017-05-15T04:12:10.504Z,9.90
2017-05-15T04:14:38.779Z,10.10
2017-05-15T04:17:07.057Z,10.20
2017-05-15T04:19:35.349Z,10.30
2017-05-15T04:22:02.961Z,10.30
2017-05-15T04:24:30.800Z,10.50
2017-05-15T04:26:58.672Z,10.50
2017-05-15T04:29:26.936Z,10.60
2017-05-15T04:31:55.260Z,10.70
2017-05-15T04:34:23.541Z,10.80
2017-05-15T04:36:52.173Z,10.90
2017-05-15T04:39:19.671Z,10.80
2017-05-15T04:41:47.980Z,11.00
2017-05-15T04:44:15.512Z,11.00
2017-05-15T04:46:43.845Z,11.30
2017-05-15T04:49:12.109Z,11.50
2017-05-15T04:51:39.613Z,11.50
2017-05-15T04:54:07.892Z,11.90
2017-05-15T04:56:36.154Z,12.10
2017-05-15T04:59:03.985Z,12.10
2017-05-15T05:01:31.741Z,12.30
2017-05-15T05:03:59.605Z,12.50
2017-05-15T05:06:27.131Z,12.80
2017-05-15T05:08:54.648Z,13.10
2017-05-15T05:11:23.655Z,14.80
2017-05-15T05:13:51.932Z,16.20
2017-05-15T05:16:20.455Z,17.80
2017-05-15T05:18:47.996Z,17.70
2017-05-15T05:21:21.524Z,19.20
2017-05-15T05:24:01.801Z,21.30
2017-05-15T05:26:53.974Z,22.30
2017-05-15T05:35:58.696Z,22.60
2017-05-15T05:38:52.035Z,23.30
2017-05-15T05:41:36.843Z,23.40
2017-05-15T05:44:08.355Z,23.30
2017-05-15T05:46:36.931Z,22.50
2017-05-15T05:49:05.297Z,22.30
2017-05-15T05:51:33.063Z,22.20
2017-05-15T05:54:01.364Z,22.70
2017-05-15T05:56:35.069Z,23.90
2017-05-15T05:59:04.112Z,23.50
2017-05-15T06:01:49.038Z,23.50
2017-05-15T06:04:28.376Z,23.40
2017-05-15T06:07:08.543Z,25.00
2017-05-15T06:09:57.856Z,25.20
2017-05-15T06:12:52.241Z,25.20
2017-05-15T06:15:40.641Z,24.80
2017-05-15T06:18:31.695Z,24.80
2017-05-15T06:20:59.468Z,25.40
2017-05-15T06:23:54.395Z,26.20
2017-05-15T06:26:47.015Z,25.50
2017-05-15T06:29:15.313Z,24.10
2017-05-15T06:31:43.637Z,24.00
2017-05-15T06:34:12.274Z,24.50
2017-05-15T06:36:40.566Z,24.40
2017-05-15T06:39:32.484Z,23.60
2017-05-15T06:42:27.487Z,24.60
2017-05-15T06:44:55.778Z,23.30
2017-05-15T06:47:23.275Z,23.20
2017-05-15T06:49:50.797Z,23.20
2017-05-15T06:52:19.059Z,22.30
2017-05-15T06:54:47.363Z,21.50
2017-05-15T06:57:14.861Z,21.50
2017-05-15T06:59:42.378Z,20.10
2017-05-15T07:02:10.972Z,21.50
2017-05-15T07:04:38.483Z,21.50
2017-05-15T07:07:06.289Z,22.90
2017-05-15T07:09:34.877Z,23.00
2017-05-15T07:12:02.368Z,23.00
2017-05-15T07:14:29.934Z,22.40
2017-05-15T07:16:58.195Z,22.70
2017-05-15T07:19:25.680Z,22.70
2017-05-15T07:21:53.995Z,21.40
2017-05-15T07:24:21.755Z,21.30
2017-05-15T07:26:49.267Z,21.00
2017-05-15T07:29:17.569Z,20.00
2017-05-15T07:31:45.114Z,19.90
2017-05-15T07:34:13.395Z,18.80
2017-05-15T07:36:40.960Z,18.70
2017-05-15T07:39:08.471Z,19.90
2017-05-15T07:41:37.572Z,18.90
2017-05-15T07:44:05.840Z,19.00
2017-05-15T07:46:34.424Z,19.00
2017-05-15T07:49:02.249Z,19.00
2017-05-15T07:51:30.023Z,19.30
2017-05-15T07:53:57.514Z,20.20
2017-05-15T07:56:25.010Z,19.90
2017-05-15T07:58:52.549Z,19.80
2017-05-15T08:01:20.071Z,20.00
2017-05-15T08:03:48.430Z,18.30
2017-05-15T08:06:16.715Z,17.90
2017-05-15T08:08:45.795Z,17.90
2017-05-15T08:11:13.293Z,17.90
2017-05-15T08:13:41.609Z,19.30
2017-05-15T08:16:09.104Z,19.30
2017-05-15T08:18:36.685Z,18.50
2017-05-15T08:21:04.990Z,19.10
2017-05-15T08:23:32.498Z,19.10
2017-05-15T08:25:59.996Z,19.70
2017-05-15T08:28:28.604Z,23.50
2017-05-15T08:30:57.127Z,23.10
2017-05-15T08:33:25.455Z,23.00
2017-05-15T08:35:53.707Z,21.80
2017-05-15T08:38:21.305Z,21.70
2017-05-15T08:40:50.578Z,21.10
2017-05-15T08:43:18.877Z,21.60
2017-05-15T08:45:46.428Z,21.60
2017-05-15T08:48:14.995Z,23.40
2017-05-15T08:50:43.311Z,23.90
2017-05-15T08:53:10.840Z,23.90
2017-05-15T08:55:38.421Z,23.20
2017-05-15T08:58:05.949Z,22.90
2017-05-15T09:00:33.496Z,23.00
2017-05-15T09:03:00.997Z,22.00
2017-05-15T09:05:28.534Z,21.10
2017-05-15T09:07:56.042Z,20.90
2017-05-15T09:10:24.323Z,20.40
2017-05-15T09:12:52.112Z,20.30
2017-05-15T09:15:20.400Z,19.40
2017-05-15T09:17:48.890Z,19.50
2017-05-15T09:20:16.404Z,19.50
2017-05-15T09:22:43.968Z,19.70
2017-05-15T09:25:11.491Z,19.50
2017-05-15T09:27:39.815Z,19.80
2017-05-15T09:30:07.376Z,19.80
2017-05-15T09:32:35.675Z,20.40
2017-05-15T09:35:03.964Z,20.90
2017-05-15T09:37:32.498Z,21.00
2017-05-15T09:40:00.763Z,20.50
2017-05-15T09:42:28.540Z,20.50
2017-05-15T09:44:56.056Z,20.50
2017-05-15T09:47:23.579Z,20.20
2017-05-15T09:49:52.604Z,18.40
2017-05-15T09:52:20.940Z,18.80
2017-05-15T09:54:49.952Z,19.60
2017-05-15T09:57:18.493Z,19.20
2017-05-15T09:59:46.028Z,19.20
2017-05-15T10:02:14.628Z,18.40
2017-05-15T10:04:42.916Z,18.10
2017-05-15T10:07:11.209Z,17.90
2017-05-15T10:09:39.487Z,18.00
2017-05-15T10:12:07.123Z,18.00
2017-05-15T10:14:34.644Z,18.40
2017-05-15T10:17:03.756Z,19.00
2017-05-15T10:19:31.301Z,19.00
2017-05-15T10:21:58.800Z,19.40
2017-05-15T10:24:26.423Z,19.40
2017-05-15T10:26:58.723Z,19.00
2017-05-15T10:29:27.906Z,18.10
2017-05-15T10:31:56.226Z,18.00
2017-05-15T10:34:24.797Z,18.50
2017-05-15T10:36:53.084Z,18.70
2017-05-15T10:39:21.631Z,18.60
2017-05-15T10:41:49.164Z,18.60
2017-05-15T10:44:17.493Z,18.70
2017-05-15T10:46:44.992Z,18.70
2017-05-15T10:49:12.880Z,18.30
2017-05-15T10:51:41.199Z,18.60
2017-05-15T10:54:09.507Z,18.60
2017-05-15T10:56:37.011Z,18.50
2017-05-15T10:59:04.560Z,18.60
2017-05-15T11:01:33.599Z,18.60
2017-05-15T11:04:01.132Z,18.70
2017-05-15T11:06:29.424Z,19.00
2017-05-15T11:08:57.693Z,19.50
2017-05-15T11:11:25.208Z,19.50
2017-05-15T11:13:52.708Z,19.50
2017-05-15T11:16:20.992Z,19.20
2017-05-15T11:18:49.598Z,19.10
2017-05-15T11:21:17.163Z,19.10
2017-05-15T11:23:44.691Z,18.70
2017-05-15T11:26:12.251Z,18.80
2017-05-15T11:28:39.977Z,18.80
2017-05-15T11:31:08.264Z,19.30
2017-05-15T11:33:36.570Z,19.40
2017-05-15T11:36:04.920Z,19.50
2017-05-15T11:38:33.217Z,19.40
2017-05-15T11:41:00.735Z,19.40
2017-05-15T11:43:29.060Z,19.00
2017-05-15T11:45:57.348Z,18.90
2017-05-15T11:48:25.621Z,19.00
2017-05-15T11:50:53.136Z,19.00
2017-05-15T11:53:21.452Z,19.30
2017-05-15T11:55:48.963Z,19.20
2017-05-15T11:58:17.231Z,19.00
2017-05-15T12:00:45.509Z,18.90
2017-05-15T12:03:13.799Z,19.00
2017-05-15T12:05:41.346Z,19.00
2017-05-15T12:08:09.703Z,19.60
2017-05-15T12:10:38.356Z,19.90
2017-05-15T12:13:06.211Z,19.90
2017-05-15T12:15:33.716Z,20.00
2017-05-15T12:18:02.029Z,19.70
2017-05-15T12:20:29.557Z,19.70
2017-05-15T12:22:57.837Z,20.70
2017-05-15T12:25:25.399Z,20.70
2017-05-15T12:27:52.912Z,20.50
2017-05-15T12:30:20.407Z,20.50
2017-05-15T12:32:47.945Z,20.20
2017-05-15T12:35:16.481Z,19.80
2017-05-15T12:37:44.767Z,19.70
2017-05-15T12:40:13.035Z,19.80
2017-05-15T12:42:41.345Z,19.60
2017-05-15T12:45:09.643Z,19.30
2017-05-15T12:47:37.973Z,19.10
2017-05-15T12:50:05.467Z,19.10
2017-05-15T12:52:34.120Z,19.30
2017-05-15T12:55:03.129Z,19.50
2017-05-15T12:57:30.947Z,19.50
2017-05-15T12:59:59.531Z,19.10
2017-05-15T13:02:27.040Z,19.10
2017-05-15T13:04:55.332Z,18.40
2017-05-15T13:07:23.631Z,18.80
2017-05-15T13:09:51.160Z,18.80
2017-05-15T13:12:19.506Z,19.00
2017-05-15T13:14:48.516Z,18.70
2017-05-15T13:17:16.784Z,18.80
2017-05-15T13:19:45.097Z,18.90
2017-05-15T13:22:13.372Z,18.90
2017-05-15T13:24:40.891Z,18.90
2017-05-15T13:27:09.159Z,19.00
2017-05-15T13:29:37.443Z,19.00
2017-05-15T13:32:05.735Z,19.30
2017-05-15T13:34:33.283Z,19.30
2017-05-15T13:37:01.804Z,19.10
2017-05-15T13:39:29.393Z,19.10
2017-05-15T13:41:56.911Z,19.10
2017-05-15T13:44:25.543Z,19.40
2017-05-15T13:46:53.060Z,19.40
2017-05-15T13:49:20.583Z,19.20
2017-05-15T13:51:48.116Z,19.30
2017-05-15T13:54:16.416Z,19.40
2017-05-15T13:56:43.962Z,19.40
2017-05-15T13:59:12.264Z,18.90
2017-05-15T14:01:39.772Z,18.80
2017-05-15T14:04:07.267Z,18.40
2017-05-15T14:06:34.791Z,18.10
2017-05-15T14:09:03.058Z,17.40
2017-05-15T14:11:31.427Z,17.10
2017-05-15T14:13:59.184Z,17.10
2017-05-15T14:16:26.721Z,16.80
2017-05-15T14:18:54.982Z,16.40
2017-05-15T14:21:23.323Z,16.30
2017-05-15T14:23:51.952Z,16.30
2017-05-15T14:26:19.483Z,16.30
2017-05-15T14:28:47.779Z,16.50
2017-05-15T14:31:16.049Z,16.50
2017-05-15T14:33:43.620Z,16.50
2017-05-15T14:36:12.199Z,16.20
2017-05-15T14:38:39.960Z,16.20
2017-05-15T14:41:08.229Z,16.10
2017-05-15T14:43:36.747Z,16.10
2017-05-15T14:46:05.744Z,16.10
2017-05-15T14:48:33.256Z,16.10
2017-05-15T14:51:01.736Z,16.10
2017-05-15T14:53:29.318Z,16.10
2017-05-15T14:55:56.863Z,16.20
2017-05-15T14:58:25.144Z,16.30
2017-05-15T15:00:53.403Z,16.60
2017-05-15T15:03:20.913Z,16.60
2017-05-15T15:05:49.280Z,17.10
2017-05-15T15:08:17.840Z,17.30
2017-05-15T15:10:46.902Z,17.50
2017-05-15T15:13:14.432Z,17.50
2017-05-15T15:15:41.964Z,17.60
2017-05-15T15:18:09.727Z,17.80
2017-05-15T15:20:37.224Z,17.80
2017-05-15T15:23:04.743Z,18.10
2017-05-15T15:25:33.035Z,18.60
2017-05-15T15:28:01.319Z,18.60
2017-05-15T15:30:29.577Z,18.80
2017-05-15T15:32:57.836Z,18.80
2017-05-15T15:35:26.132Z,18.30
2017-05-15T15:37:54.428Z,18.20
2017-05-15T15:42:41.432Z,18.20
2017-05-15T15:45:09.736Z,18.70
2017-05-15T15:47:38.524Z,18.70
2017-05-15T15:50:06.835Z,18.60
2017-05-15T15:52:35.842Z,18.40
2017-05-15T15:55:04.152Z,18.40
2017-05-15T15:57:32.416Z,18.30
2017-05-15T16:00:00.001Z,18.30
2017-05-15T16:02:28.261Z,18.40
2017-05-15T16:04:55.822Z,18.50
2017-05-15T16:07:23.623Z,18.30
2017-05-15T16:09:51.179Z,18.20
2017-05-15T16:12:20.188Z,17.80
2017-05-15T16:14:47.709Z,17.80
2017-05-15T16:17:15.200Z,18.00
2017-05-15T16:19:43.027Z,18.00
2017-05-15T16:22:10.519Z,18.00
2017-05-15T16:24:38.051Z,17.90
2017-05-15T16:27:05.600Z,17.70
2017-05-15T16:29:33.888Z,17.40
2017-05-15T16:32:01.397Z,17.40
2017-05-15T16:34:29.191Z,17.50
2017-05-15T16:36:56.699Z,17.60
2017-05-15T16:39:24.957Z,17.70
2017-05-15T16:41:54.339Z,17.40
2017-05-15T16:44:22.083Z,17.50
2017-05-15T16:46:50.402Z,17.30
2017-05-15T16:49:18.713Z,17.30
2017-05-15T16:51:46.236Z,17.30
2017-05-15T16:54:14.548Z,17.10
2017-05-15T16:56:42.851Z,17.00
2017-05-15T16:59:11.110Z,16.90
2017-05-15T17:01:39.404Z,16.60
2017-05-15T17:04:08.011Z,16.50
2017-05-15T17:06:36.312Z,16.50
2017-05-15T17:09:03.850Z,16.40
2017-05-15T17:11:31.667Z,16.50
2017-05-15T17:13:59.161Z,16.50
2017-05-15T17:16:27.012Z,16.40
2017-05-15T17:18:55.567Z,16.20
2017-05-15T17:21:23.320Z,16.20
2017-05-15T17:23:51.645Z,16.00
2017-05-15T17:26:20.662Z,15.80
2017-05-15T17:28:48.928Z,15.80
2017-05-15T17:31:17.557Z,15.70
2017-05-15T17:33:45.816Z,15.70
2017-05-15T17:36:13.384Z,15.70
2017-05-15T17:38:41.671Z,15.80
2017-05-15T17:41:10.802Z,15.80
2017-05-15T17:43:39.165Z,15.70
2017-05-15T17:46:08.202Z,15.60
2017-05-15T17:48:36.807Z,15.60
2017-05-15T17:51:05.071Z,15.50
2017-05-15T17:53:33.412Z,15.40
2017-05-15T17:56:01.903Z,15.30
2017-05-15T17:58:29.730Z,15.20
2017-05-15T18:00:58.023Z,15.20
2017-05-15T18:03:26.663Z,15.10
2017-05-15T18:05:54.147Z,15.10
2017-05-15T18:08:21.717Z,15.00
2017-05-15T18:10:49.227Z,14.80
2017-05-15T18:13:17.495Z,14.60
2017-05-15T18:15:45.061Z,14.60
2017-05-15T18:18:12.839Z,14.60
2017-05-15T18:20:41.176Z,14.30
2017-05-15T18:23:08.714Z,14.30
2017-05-15T18:25:37.042Z,14.10
2017-05-15T18:28:04.563Z,14.10
2017-05-15T18:30:32.109Z,14.00
2017-05-15T18:32:59.645Z,13.90
2017-05-15T18:35:28.305Z,13.70
2017-05-15T18:37:56.867Z,13.60
2017-05-15T18:40:24.375Z,13.60
2017-05-15T18:42:51.921Z,13.60
2017-05-15T18:45:19.444Z,13.50
2017-05-15T18:47:47.128Z,13.30
2017-05-15T18:50:15.522Z,13.00
2017-05-15T18:52:43.848Z,12.90
2017-05-15T18:55:11.404Z,12.90
2017-05-15T18:57:38.903Z,12.90
2017-05-15T19:00:06.462Z,12.80
2017-05-15T19:02:33.963Z,12.70
2017-05-15T19:05:01.764Z,12.70
2017-05-15T19:07:30.065Z,12.60
2017-05-15T19:09:58.649Z,12.60
2017-05-15T19:12:27.284Z,12.50
2017-05-15T19:14:54.896Z,12.50
2017-05-15T19:17:23.921Z,12.40
2017-05-15T19:19:52.453Z,12.40
2017-05-15T19:22:19.996Z,12.40
2017-05-15T19:24:47.508Z,12.30
2017-05-15T19:27:15.812Z,12.10
2017-05-15T19:29:43.319Z,12.10
2017-05-15T19:32:11.122Z,12.10
2017-05-15T19:34:38.988Z,12.00
2017-05-15T19:37:06.592Z,12.10
2017-05-15T19:39:35.016Z,12.00
2017-05-15T19:42:02.536Z,12.00
2017-05-15T19:44:30.829Z,11.80
2017-05-15T19:46:59.127Z,11.60
2017-05-15T19:49:31.313Z,11.50
2017-05-15T19:51:59.074Z,11.50
2017-05-15T19:54:27.988Z,11.40
2017-05-15T19:56:57.879Z,11.30
2017-05-15T19:59:26.863Z,11.20
2017-05-15T20:01:55.230Z,11.20
2017-05-15T20:04:23.108Z,11.20
2017-05-15T20:06:53.630Z,11.00
2017-05-15T20:09:22.207Z,11.00
2017-05-15T20:11:49.744Z,11.00
2017-05-15T20:14:17.250Z,11.00
2017-05-15T20:16:44.773Z,10.90
2017-05-15T20:19:13.065Z,10.80
2017-05-15T20:21:42.136Z,10.80
2017-05-15T20:24:10.440Z,10.70
2017-05-15T20:26:39.488Z,10.60
2017-05-15T20:29:07.012Z,10.60
2017-05-15T20:31:35.340Z,10.40
2017-05-15T20:34:03.609Z,10.40
2017-05-15T20:36:31.788Z,10.40
2017-05-15T20:38:59.419Z,10.40
2017-05-15T20:41:27.676Z,10.20
2017-05-15T20:43:55.972Z,10.20
2017-05-15T20:46:24.249Z,10.20
2017-05-15T20:48:51.800Z,10.20
2017-05-15T20:51:19.349Z,10.10
2017-05-15T20:53:47.631Z,10.10
2017-05-15T20:56:15.148Z,10.10
2017-05-15T20:58:43.497Z,9.90
2017-05-15T21:01:11.779Z,9.90
2017-05-15T21:03:40.127Z,10.10
2017-05-15T21:06:07.635Z,10.10
2017-05-15T21:08:35.925Z,10.10
2017-05-15T21:11:04.214Z,10.10
2017-05-15T21:13:32.504Z,10.10
2017-05-15T21:16:00.781Z,10.00
2017-05-15T21:18:28.309Z,10.00
2017-05-15T21:20:55.817Z,10.00
2017-05-15T21:23:23.331Z,9.80
2017-05-15T21:25:50.832Z,9.80
2017-05-15T21:28:19.152Z,9.70
2017-05-15T21:30:47.431Z,9.70
2017-05-15T21:33:15.007Z,9.60
2017-05-15T21:35:42.556Z,9.60
2017-05-15T21:38:10.362Z,9.50
2017-05-15T21:40:38.663Z,9.40
2017-05-15T21:43:07.204Z,9.30
2017-05-15T21:45:34.717Z,9.20
2017-05-15T21:48:02.980Z,9.10
2017-05-15T21:50:31.263Z,9.00
2017-05-15T21:52:59.551Z,8.90
2017-05-15T21:55:28.187Z,8.90
2017-05-15T21:57:56.443Z,8.90
2017-05-15T22:00:24.000Z,8.90
2017-05-15T22:02:52.293Z,8.80
2017-05-15T22:05:21.319Z,8.70
2017-05-15T22:07:49.848Z,8.70
2017-05-15T22:10:17.444Z,8.70
2017-05-15T22:12:44.995Z,8.70
2017-05-15T22:15:13.996Z,8.50
2017-05-15T22:17:41.515Z,8.60
2017-05-15T22:20:09.018Z,8.50
2017-05-15T22:22:37.300Z,8.50
2017-05-15T22:25:05.556Z,8.50
2017-05-15T22:27:33.072Z,8.50
2017-05-15T22:30:00.574Z,8.40
2017-05-15T22:32:28.903Z,8.30
2017-05-15T22:34:56.439Z,8.20
2017-05-15T22:37:23.964Z,8.10
2017-05-15T22:39:52.270Z,8.00
2017-05-15T22:42:19.840Z,8.00
2017-05-15T22:44:47.337Z,8.10
2017-05-15T22:47:15.275Z,8.10
2017-05-15T22:49:43.558Z,8.00
2017-05-15T22:52:11.083Z,8.00
2017-05-15T22:54:38.575Z,7.90
2017-05-15T22:57:06.878Z,7.80
2017-05-15T22:59:35.141Z,7.80
2017-05-15T23:02:03.690Z,7.70
2017-05-15T23:04:31.220Z,7.70
2017-05-15T23:06:58.802Z,7.70
2017-05-15T23:09:26.294Z,7.70
2017-05-15T23:11:54.577Z,7.70
2017-05-15T23:14:22.876Z,7.60
2017-05-15T23:16:50.407Z,7.60
2017-05-15T23:19:18.982Z,7.60
2017-05-15T23:21:46.842Z,7.60
2017-05-15T23:24:14.571Z,7.60
2017-05-15T23:26:43.167Z,7.60
2017-05-15T23:29:10.655Z,7.50
2017-05-15T23:31:39.238Z,7.40
2017-05-15T23:34:07.527Z,7.40
2017-05-15T23:36:35.807Z,7.40
2017-05-15T23:39:03.304Z,7.30
2017-05-15T23:41:30.838Z,7.40
2017-05-15T23:43:59.093Z,7.30
2017-05-15T23:46:26.592Z,7.30
2017-05-15T23:48:54.449Z,7.20
2017-05-15T23:51:22.213Z,7.20
2017-05-15T23:53:49.753Z,7.20
2017-05-15T23:56:18.028Z,7.10
2017-05-15T23:58:46.304Z,7.10
